sensor_id;sensor_type;location;lat;lon;timestamp;P1;durP1;ratioP1;P2;durP2;ratioP2
22786;SDS011;63134;52.020;4.714;2024-01-25T00:02:28;36.55;;;7.22;;
22786;SDS011;63134;52.020;4.714;2024-01-25T00:05:14;25.88;;;6.28;;
22786;SDS011;63134;52.020;4.714;2024-01-25T00:08:00;33.90;;;6.38;;
22786;SDS011;63134;52.020;4.714;2024-01-25T00:10:45;38.17;;;8.00;;
22786;SDS011;63134;52.020;4.714;2024-01-25T00:13:31;32.90;;;7.03;;
22786;SDS011;63134;52.020;4.714;2024-01-25T00:16:16;35.17;;;7.53;;
22786;SDS011;63134;52.020;4.714;2024-01-25T00:19:05;30.02;;;6.68;;
22786;SDS011;63134;52.020;4.714;2024-01-25T00:21:50;27.23;;;6.38;;
22786;SDS011;63134;52.020;4.714;2024-01-25T00:24:36;25.65;;;6.28;;
22786;SDS011;63134;52.020;4.714;2024-01-25T00:27:23;36.22;;;7.07;;
22786;SDS011;63134;52.020;4.714;2024-01-25T00:30:08;38.00;;;7.03;;
22786;SDS011;63134;52.020;4.714;2024-01-25T00:32:55;28.15;;;7.00;;
22786;SDS011;63134;52.020;4.714;2024-01-25T00:35:42;35.38;;;7.30;;
22786;SDS011;63134;52.020;4.714;2024-01-25T00:38:28;40.38;;;7.05;;
22786;SDS011;63134;52.020;4.714;2024-01-25T00:41:17;30.00;;;6.30;;
22786;SDS011;63134;52.020;4.714;2024-01-25T00:44:06;32.58;;;7.07;;
22786;SDS011;63134;52.020;4.714;2024-01-25T00:46:58;25.85;;;7.05;;
22786;SDS011;63134;52.020;4.714;2024-01-25T00:49:44;39.03;;;8.18;;
22786;SDS011;63134;52.020;4.714;2024-01-25T00:52:29;27.25;;;6.05;;
22786;SDS011;63134;52.020;4.714;2024-01-25T00:55:20;33.85;;;7.10;;
22786;SDS011;63134;52.020;4.714;2024-01-25T00:58:07;29.73;;;6.28;;
22786;SDS011;63134;52.020;4.714;2024-01-25T01:00:53;38.55;;;6.75;;
22786;SDS011;63134;52.020;4.714;2024-01-25T01:03:39;23.67;;;6.10;;
22786;SDS011;63134;52.020;4.714;2024-01-25T01:06:25;31.13;;;6.85;;
22786;SDS011;63134;52.020;4.714;2024-01-25T01:09:11;29.10;;;7.15;;
22786;SDS011;63134;52.020;4.714;2024-01-25T01:11:56;33.83;;;7.57;;
22786;SDS011;63134;52.020;4.714;2024-01-25T01:14:42;35.70;;;6.53;;
22786;SDS011;63134;52.020;4.714;2024-01-25T01:17:28;31.88;;;6.70;;
22786;SDS011;63134;52.020;4.714;2024-01-25T01:20:13;30.23;;;6.57;;
22786;SDS011;63134;52.020;4.714;2024-01-25T01:22:59;38.22;;;7.15;;
22786;SDS011;63134;52.020;4.714;2024-01-25T01:25:45;23.90;;;5.43;;
22786;SDS011;63134;52.020;4.714;2024-01-25T01:28:30;34.28;;;7.05;;
22786;SDS011;63134;52.020;4.714;2024-01-25T01:31:16;28.83;;;5.75;;
22786;SDS011;63134;52.020;4.714;2024-01-25T01:34:02;20.63;;;5.20;;
22786;SDS011;63134;52.020;4.714;2024-01-25T01:36:47;32.83;;;7.03;;
22786;SDS011;63134;52.020;4.714;2024-01-25T01:39:33;24.63;;;6.50;;
22786;SDS011;63134;52.020;4.714;2024-01-25T01:42:19;27.17;;;5.97;;
22786;SDS011;63134;52.020;4.714;2024-01-25T01:45:04;26.98;;;6.22;;
22786;SDS011;63134;52.020;4.714;2024-01-25T01:47:50;32.05;;;6.15;;
22786;SDS011;63134;52.020;4.714;2024-01-25T01:50:36;32.92;;;6.05;;
22786;SDS011;63134;52.020;4.714;2024-01-25T01:53:23;41.25;;;7.43;;
22786;SDS011;63134;52.020;4.714;2024-01-25T01:56:08;30.13;;;6.78;;
22786;SDS011;63134;52.020;4.714;2024-01-25T01:58:56;32.50;;;7.32;;
22786;SDS011;63134;52.020;4.714;2024-01-25T02:01:46;40.83;;;7.28;;
22786;SDS011;63134;52.020;4.714;2024-01-25T02:04:32;36.53;;;7.47;;
22786;SDS011;63134;52.020;4.714;2024-01-25T02:07:17;36.97;;;6.53;;
22786;SDS011;63134;52.020;4.714;2024-01-25T02:10:03;38.97;;;8.07;;
22786;SDS011;63134;52.020;4.714;2024-01-25T02:12:50;38.03;;;7.70;;
22786;SDS011;63134;52.020;4.714;2024-01-25T02:15:35;34.38;;;7.70;;
22786;SDS011;63134;52.020;4.714;2024-01-25T02:18:21;28.55;;;6.35;;
22786;SDS011;63134;52.020;4.714;2024-01-25T02:21:07;22.17;;;5.22;;
22786;SDS011;63134;52.020;4.714;2024-01-25T02:23:55;36.25;;;7.55;;
22786;SDS011;63134;52.020;4.714;2024-01-25T02:26:41;32.83;;;7.28;;
22786;SDS011;63134;52.020;4.714;2024-01-25T02:29:27;31.77;;;6.82;;
22786;SDS011;63134;52.020;4.714;2024-01-25T02:32:12;21.35;;;5.43;;
22786;SDS011;63134;52.020;4.714;2024-01-25T02:35:01;23.77;;;5.03;;
22786;SDS011;63134;52.020;4.714;2024-01-25T02:37:46;40.28;;;7.25;;
22786;SDS011;63134;52.020;4.714;2024-01-25T02:40:34;32.80;;;6.22;;
22786;SDS011;63134;52.020;4.714;2024-01-25T02:43:19;29.60;;;6.15;;
22786;SDS011;63134;52.020;4.714;2024-01-25T02:46:05;25.70;;;5.55;;
22786;SDS011;63134;52.020;4.714;2024-01-25T02:48:51;31.27;;;6.55;;
22786;SDS011;63134;52.020;4.714;2024-01-25T02:51:37;25.20;;;5.60;;
22786;SDS011;63134;52.020;4.714;2024-01-25T02:54:22;21.95;;;5.60;;
22786;SDS011;63134;52.020;4.714;2024-01-25T02:57:08;19.85;;;5.65;;
22786;SDS011;63134;52.020;4.714;2024-01-25T02:59:53;19.90;;;5.07;;
22786;SDS011;63134;52.020;4.714;2024-01-25T03:02:39;19.20;;;5.10;;
22786;SDS011;63134;52.020;4.714;2024-01-25T03:05:24;22.15;;;5.13;;
22786;SDS011;63134;52.020;4.714;2024-01-25T03:08:13;18.20;;;5.25;;
22786;SDS011;63134;52.020;4.714;2024-01-25T03:10:59;15.95;;;3.97;;
22786;SDS011;63134;52.020;4.714;2024-01-25T03:13:45;10.65;;;3.78;;
22786;SDS011;63134;52.020;4.714;2024-01-25T03:16:30;19.42;;;4.15;;
22786;SDS011;63134;52.020;4.714;2024-01-25T03:19:16;17.85;;;4.78;;
22786;SDS011;63134;52.020;4.714;2024-01-25T03:22:03;21.08;;;4.53;;
22786;SDS011;63134;52.020;4.714;2024-01-25T03:24:48;14.73;;;4.10;;
22786;SDS011;63134;52.020;4.714;2024-01-25T03:27:34;16.02;;;3.83;;
22786;SDS011;63134;52.020;4.714;2024-01-25T03:30:20;19.70;;;3.92;;
22786;SDS011;63134;52.020;4.714;2024-01-25T03:33:06;21.35;;;4.75;;
22786;SDS011;63134;52.020;4.714;2024-01-25T03:35:51;17.10;;;5.13;;
22786;SDS011;63134;52.020;4.714;2024-01-25T03:38:37;23.08;;;5.78;;
22786;SDS011;63134;52.020;4.714;2024-01-25T03:41:23;29.30;;;6.35;;
22786;SDS011;63134;52.020;4.714;2024-01-25T03:44:08;22.90;;;5.57;;
22786;SDS011;63134;52.020;4.714;2024-01-25T03:46:54;33.35;;;6.63;;
22786;SDS011;63134;52.020;4.714;2024-01-25T03:49:40;26.05;;;6.22;;
22786;SDS011;63134;52.020;4.714;2024-01-25T03:52:26;22.63;;;5.53;;
22786;SDS011;63134;52.020;4.714;2024-01-25T03:55:15;28.58;;;5.60;;
22786;SDS011;63134;52.020;4.714;2024-01-25T03:58:00;23.58;;;5.20;;
22786;SDS011;63134;52.020;4.714;2024-01-25T04:00:46;22.20;;;5.30;;
22786;SDS011;63134;52.020;4.714;2024-01-25T04:03:32;20.38;;;4.63;;
22786;SDS011;63134;52.020;4.714;2024-01-25T04:06:17;16.23;;;4.68;;
22786;SDS011;63134;52.020;4.714;2024-01-25T04:09:03;18.42;;;5.28;;
22786;SDS011;63134;52.020;4.714;2024-01-25T04:11:51;15.48;;;4.50;;
22786;SDS011;63134;52.020;4.714;2024-01-25T04:14:36;23.42;;;5.60;;
22786;SDS011;63134;52.020;4.714;2024-01-25T04:17:22;27.77;;;6.15;;
22786;SDS011;63134;52.020;4.714;2024-01-25T04:20:07;23.00;;;5.18;;
22786;SDS011;63134;52.020;4.714;2024-01-25T04:22:54;19.30;;;5.28;;
22786;SDS011;63134;52.020;4.714;2024-01-25T04:25:39;21.67;;;4.78;;
22786;SDS011;63134;52.020;4.714;2024-01-25T04:28:25;27.88;;;5.85;;
22786;SDS011;63134;52.020;4.714;2024-01-25T04:31:14;22.83;;;6.93;;
22786;SDS011;63134;52.020;4.714;2024-01-25T04:33:59;24.25;;;6.40;;
22786;SDS011;63134;52.020;4.714;2024-01-25T04:36:45;23.48;;;6.43;;
22786;SDS011;63134;52.020;4.714;2024-01-25T04:39:31;17.65;;;4.95;;
22786;SDS011;63134;52.020;4.714;2024-01-25T04:42:17;27.92;;;6.28;;
22786;SDS011;63134;52.020;4.714;2024-01-25T04:45:05;22.63;;;5.78;;
22786;SDS011;63134;52.020;4.714;2024-01-25T04:47:51;30.40;;;6.15;;
22786;SDS011;63134;52.020;4.714;2024-01-25T04:50:37;22.90;;;5.43;;
22786;SDS011;63134;52.020;4.714;2024-01-25T04:53:24;18.42;;;5.20;;
22786;SDS011;63134;52.020;4.714;2024-01-25T04:56:10;13.10;;;3.95;;
22786;SDS011;63134;52.020;4.714;2024-01-25T04:58:58;17.58;;;5.05;;
22786;SDS011;63134;52.020;4.714;2024-01-25T05:01:44;22.67;;;6.25;;
22786;SDS011;63134;52.020;4.714;2024-01-25T05:04:29;25.35;;;6.15;;
22786;SDS011;63134;52.020;4.714;2024-01-25T05:07:16;31.83;;;6.55;;
22786;SDS011;63134;52.020;4.714;2024-01-25T05:10:02;32.50;;;6.25;;
22786;SDS011;63134;52.020;4.714;2024-01-25T05:12:47;29.58;;;6.72;;
22786;SDS011;63134;52.020;4.714;2024-01-25T05:15:33;36.58;;;7.25;;
22786;SDS011;63134;52.020;4.714;2024-01-25T05:18:19;23.30;;;6.10;;
22786;SDS011;63134;52.020;4.714;2024-01-25T05:21:04;20.33;;;5.35;;
22786;SDS011;63134;52.020;4.714;2024-01-25T05:23:50;17.42;;;5.25;;
22786;SDS011;63134;52.020;4.714;2024-01-25T05:26:35;31.60;;;6.72;;
22786;SDS011;63134;52.020;4.714;2024-01-25T05:29:21;35.08;;;7.30;;
22786;SDS011;63134;52.020;4.714;2024-01-25T05:32:07;28.90;;;6.68;;
22786;SDS011;63134;52.020;4.714;2024-01-25T05:34:52;22.75;;;5.50;;
22786;SDS011;63134;52.020;4.714;2024-01-25T05:37:38;19.45;;;5.13;;
22786;SDS011;63134;52.020;4.714;2024-01-25T05:40:23;23.95;;;5.88;;
22786;SDS011;63134;52.020;4.714;2024-01-25T05:43:09;28.40;;;4.88;;
22786;SDS011;63134;52.020;4.714;2024-01-25T05:45:55;26.05;;;5.93;;
22786;SDS011;63134;52.020;4.714;2024-01-25T05:48:40;25.67;;;6.88;;
22786;SDS011;63134;52.020;4.714;2024-01-25T05:51:26;23.08;;;6.35;;
22786;SDS011;63134;52.020;4.714;2024-01-25T05:54:12;17.77;;;5.07;;
22786;SDS011;63134;52.020;4.714;2024-01-25T05:56:58;21.40;;;5.22;;
22786;SDS011;63134;52.020;4.714;2024-01-25T05:59:43;15.65;;;5.07;;
22786;SDS011;63134;52.020;4.714;2024-01-25T06:02:28;25.27;;;5.68;;
22786;SDS011;63134;52.020;4.714;2024-01-25T06:05:14;22.50;;;6.05;;
22786;SDS011;63134;52.020;4.714;2024-01-25T06:08:00;14.55;;;4.20;;
22786;SDS011;63134;52.020;4.714;2024-01-25T06:10:46;8.65;;;3.63;;
22786;SDS011;63134;52.020;4.714;2024-01-25T06:13:34;7.68;;;3.17;;
22786;SDS011;63134;52.020;4.714;2024-01-25T06:16:20;18.83;;;4.85;;
22786;SDS011;63134;52.020;4.714;2024-01-25T06:19:06;25.52;;;6.45;;
22786;SDS011;63134;52.020;4.714;2024-01-25T06:21:53;27.65;;;7.57;;
22786;SDS011;63134;52.020;4.714;2024-01-25T06:24:38;32.08;;;8.38;;
22786;SDS011;63134;52.020;4.714;2024-01-25T06:27:24;23.00;;;7.90;;
22786;SDS011;63134;52.020;4.714;2024-01-25T06:30:09;35.70;;;8.13;;
22786;SDS011;63134;52.020;4.714;2024-01-25T06:32:55;35.83;;;8.30;;
22786;SDS011;63134;52.020;4.714;2024-01-25T06:35:41;36.88;;;7.88;;
22786;SDS011;63134;52.020;4.714;2024-01-25T06:38:26;34.00;;;7.35;;
22786;SDS011;63134;52.020;4.714;2024-01-25T06:41:12;17.65;;;5.85;;
22786;SDS011;63134;52.020;4.714;2024-01-25T06:43:58;27.63;;;6.65;;
22786;SDS011;63134;52.020;4.714;2024-01-25T06:46:44;23.92;;;6.78;;
22786;SDS011;63134;52.020;4.714;2024-01-25T06:49:29;37.00;;;8.48;;
22786;SDS011;63134;52.020;4.714;2024-01-25T06:52:15;36.72;;;8.43;;
22786;SDS011;63134;52.020;4.714;2024-01-25T06:55:01;30.45;;;7.85;;
22786;SDS011;63134;52.020;4.714;2024-01-25T06:57:47;35.50;;;7.95;;
22786;SDS011;63134;52.020;4.714;2024-01-25T07:00:32;25.25;;;6.03;;
22786;SDS011;63134;52.020;4.714;2024-01-25T07:03:18;17.45;;;5.20;;
22786;SDS011;63134;52.020;4.714;2024-01-25T07:06:04;15.38;;;5.78;;
22786;SDS011;63134;52.020;4.714;2024-01-25T07:08:50;24.27;;;6.47;;
22786;SDS011;63134;52.020;4.714;2024-01-25T07:11:36;30.17;;;6.75;;
22786;SDS011;63134;52.020;4.714;2024-01-25T07:14:22;37.63;;;9.40;;
22786;SDS011;63134;52.020;4.714;2024-01-25T07:17:07;41.97;;;9.15;;
22786;SDS011;63134;52.020;4.714;2024-01-25T07:19:53;29.40;;;7.47;;
22786;SDS011;63134;52.020;4.714;2024-01-25T07:22:39;33.95;;;8.10;;
22786;SDS011;63134;52.020;4.714;2024-01-25T07:25:24;25.15;;;7.75;;
22786;SDS011;63134;52.020;4.714;2024-01-25T07:28:10;27.40;;;8.07;;
22786;SDS011;63134;52.020;4.714;2024-01-25T07:30:58;27.08;;;7.40;;
22786;SDS011;63134;52.020;4.714;2024-01-25T07:33:43;34.20;;;8.63;;
22786;SDS011;63134;52.020;4.714;2024-01-25T07:36:29;37.42;;;8.15;;
22786;SDS011;63134;52.020;4.714;2024-01-25T07:39:15;34.42;;;8.80;;
22786;SDS011;63134;52.020;4.714;2024-01-25T07:42:00;30.60;;;8.50;;
22786;SDS011;63134;52.020;4.714;2024-01-25T07:44:46;21.05;;;6.93;;
22786;SDS011;63134;52.020;4.714;2024-01-25T07:47:32;25.52;;;6.80;;
22786;SDS011;63134;52.020;4.714;2024-01-25T07:50:17;27.95;;;7.03;;
22786;SDS011;63134;52.020;4.714;2024-01-25T07:53:03;28.92;;;8.38;;
22786;SDS011;63134;52.020;4.714;2024-01-25T07:55:49;29.27;;;7.80;;
22786;SDS011;63134;52.020;4.714;2024-01-25T07:58:37;21.15;;;7.97;;
22786;SDS011;63134;52.020;4.714;2024-01-25T08:01:23;30.35;;;8.45;;
22786;SDS011;63134;52.020;4.714;2024-01-25T08:04:09;30.23;;;9.60;;
22786;SDS011;63134;52.020;4.714;2024-01-25T08:06:55;26.45;;;8.52;;
22786;SDS011;63134;52.020;4.714;2024-01-25T08:09:41;29.33;;;8.45;;
22786;SDS011;63134;52.020;4.714;2024-01-25T08:12:28;12.95;;;5.47;;
22786;SDS011;63134;52.020;4.714;2024-01-25T08:15:14;18.65;;;6.50;;
22786;SDS011;63134;52.020;4.714;2024-01-25T08:17:59;24.10;;;6.40;;
22786;SDS011;63134;52.020;4.714;2024-01-25T08:20:45;19.45;;;6.07;;
22786;SDS011;63134;52.020;4.714;2024-01-25T08:23:32;27.52;;;6.78;;
22786;SDS011;63134;52.020;4.714;2024-01-25T08:26:17;30.42;;;7.47;;
22786;SDS011;63134;52.020;4.714;2024-01-25T08:29:03;43.28;;;10.27;;
22786;SDS011;63134;52.020;4.714;2024-01-25T08:31:48;31.30;;;8.23;;
22786;SDS011;63134;52.020;4.714;2024-01-25T08:34:34;28.50;;;8.43;;
22786;SDS011;63134;52.020;4.714;2024-01-25T08:37:20;30.90;;;8.75;;
22786;SDS011;63134;52.020;4.714;2024-01-25T08:40:06;39.88;;;9.23;;
22786;SDS011;63134;52.020;4.714;2024-01-25T08:42:52;37.63;;;8.02;;
22786;SDS011;63134;52.020;4.714;2024-01-25T08:45:37;20.42;;;6.47;;
22786;SDS011;63134;52.020;4.714;2024-01-25T08:48:23;32.28;;;7.38;;
22786;SDS011;63134;52.020;4.714;2024-01-25T08:51:09;31.10;;;7.88;;
22786;SDS011;63134;52.020;4.714;2024-01-25T08:53:55;34.28;;;7.80;;
22786;SDS011;63134;52.020;4.714;2024-01-25T08:56:41;38.80;;;7.53;;
22786;SDS011;63134;52.020;4.714;2024-01-25T08:59:27;32.50;;;8.55;;
22786;SDS011;63134;52.020;4.714;2024-01-25T09:02:17;34.40;;;9.23;;
22786;SDS011;63134;52.020;4.714;2024-01-25T09:05:04;29.95;;;7.75;;
22786;SDS011;63134;52.020;4.714;2024-01-25T09:07:51;28.50;;;8.32;;
22786;SDS011;63134;52.020;4.714;2024-01-25T09:10:38;34.00;;;7.88;;
22786;SDS011;63134;52.020;4.714;2024-01-25T09:13:23;31.42;;;8.20;;
22786;SDS011;63134;52.020;4.714;2024-01-25T09:16:09;39.33;;;8.75;;
22786;SDS011;63134;52.020;4.714;2024-01-25T09:18:55;28.77;;;7.88;;
22786;SDS011;63134;52.020;4.714;2024-01-25T09:21:41;27.65;;;7.80;;
22786;SDS011;63134;52.020;4.714;2024-01-25T09:24:26;28.40;;;7.50;;
22786;SDS011;63134;52.020;4.714;2024-01-25T09:27:12;28.80;;;7.97;;
22786;SDS011;63134;52.020;4.714;2024-01-25T09:29:58;32.35;;;8.77;;
22786;SDS011;63134;52.020;4.714;2024-01-25T09:32:44;31.83;;;7.55;;
22786;SDS011;63134;52.020;4.714;2024-01-25T09:35:31;30.25;;;7.80;;
22786;SDS011;63134;52.020;4.714;2024-01-25T09:38:17;26.35;;;8.07;;
22786;SDS011;63134;52.020;4.714;2024-01-25T09:41:02;29.25;;;7.25;;
22786;SDS011;63134;52.020;4.714;2024-01-25T09:43:49;25.48;;;7.32;;
22786;SDS011;63134;52.020;4.714;2024-01-25T09:46:35;28.50;;;8.60;;
22786;SDS011;63134;52.020;4.714;2024-01-25T09:49:20;26.98;;;8.63;;
22786;SDS011;63134;52.020;4.714;2024-01-25T09:52:07;33.28;;;8.82;;
22786;SDS011;63134;52.020;4.714;2024-01-25T09:54:57;36.28;;;8.77;;
22786;SDS011;63134;52.020;4.714;2024-01-25T09:57:44;31.73;;;8.27;;
22786;SDS011;63134;52.020;4.714;2024-01-25T10:00:32;29.10;;;7.75;;
22786;SDS011;63134;52.020;4.714;2024-01-25T10:03:18;34.63;;;8.93;;
22786;SDS011;63134;52.020;4.714;2024-01-25T10:06:05;29.85;;;8.52;;
22786;SDS011;63134;52.020;4.714;2024-01-25T10:08:52;36.58;;;9.45;;
22786;SDS011;63134;52.020;4.714;2024-01-25T10:11:38;29.73;;;8.70;;
22786;SDS011;63134;52.020;4.714;2024-01-25T10:14:31;34.70;;;8.20;;
22786;SDS011;63134;52.020;4.714;2024-01-25T10:17:16;30.05;;;8.25;;
22786;SDS011;63134;52.020;4.714;2024-01-25T10:20:04;32.50;;;8.63;;
22786;SDS011;63134;52.020;4.714;2024-01-25T10:22:56;49.15;;;9.90;;
22786;SDS011;63134;52.020;4.714;2024-01-25T10:25:45;36.05;;;9.80;;
22786;SDS011;63134;52.020;4.714;2024-01-25T10:28:31;32.15;;;9.43;;
22786;SDS011;63134;52.020;4.714;2024-01-25T10:31:18;24.73;;;8.35;;
22786;SDS011;63134;52.020;4.714;2024-01-25T10:34:04;35.47;;;9.07;;
22786;SDS011;63134;52.020;4.714;2024-01-25T10:36:52;41.67;;;10.43;;
22786;SDS011;63134;52.020;4.714;2024-01-25T10:39:38;34.42;;;9.60;;
22786;SDS011;63134;52.020;4.714;2024-01-25T10:42:24;32.05;;;10.13;;
22786;SDS011;63134;52.020;4.714;2024-01-25T10:45:10;34.78;;;9.88;;
22786;SDS011;63134;52.020;4.714;2024-01-25T10:47:56;32.95;;;9.60;;
22786;SDS011;63134;52.020;4.714;2024-01-25T10:50:42;35.80;;;10.38;;
22786;SDS011;63134;52.020;4.714;2024-01-25T10:53:32;33.60;;;10.25;;
22786;SDS011;63134;52.020;4.714;2024-01-25T10:56:19;40.20;;;10.45;;
22786;SDS011;63134;52.020;4.714;2024-01-25T10:59:05;31.95;;;9.50;;
22786;SDS011;63134;52.020;4.714;2024-01-25T11:01:53;34.03;;;9.38;;
22786;SDS011;63134;52.020;4.714;2024-01-25T11:04:39;33.00;;;9.93;;
22786;SDS011;63134;52.020;4.714;2024-01-25T11:07:25;34.15;;;9.48;;
22786;SDS011;63134;52.020;4.714;2024-01-25T11:10:20;36.40;;;10.50;;
22786;SDS011;63134;52.020;4.714;2024-01-25T11:13:13;36.30;;;10.18;;
22786;SDS011;63134;52.020;4.714;2024-01-25T11:16:10;40.35;;;10.48;;
22786;SDS011;63134;52.020;4.714;2024-01-25T11:19:00;41.88;;;10.65;;
22786;SDS011;63134;52.020;4.714;2024-01-25T11:21:52;33.28;;;9.65;;
22786;SDS011;63134;52.020;4.714;2024-01-25T11:24:38;47.80;;;13.13;;
22786;SDS011;63134;52.020;4.714;2024-01-25T11:27:27;44.40;;;12.30;;
22786;SDS011;63134;52.020;4.714;2024-01-25T11:30:13;37.60;;;11.93;;
22786;SDS011;63134;52.020;4.714;2024-01-25T11:32:59;35.65;;;10.63;;
22786;SDS011;63134;52.020;4.714;2024-01-25T11:35:53;45.70;;;13.23;;
22786;SDS011;63134;52.020;4.714;2024-01-25T11:38:40;36.58;;;10.85;;
22786;SDS011;63134;52.020;4.714;2024-01-25T11:41:25;51.15;;;12.35;;
22786;SDS011;63134;52.020;4.714;2024-01-25T11:44:13;37.85;;;12.00;;
22786;SDS011;63134;52.020;4.714;2024-01-25T11:46:59;46.65;;;12.95;;
22786;SDS011;63134;52.020;4.714;2024-01-25T11:49:44;39.92;;;11.50;;
22786;SDS011;63134;52.020;4.714;2024-01-25T11:52:30;43.42;;;11.38;;
22786;SDS011;63134;52.020;4.714;2024-01-25T11:55:18;42.20;;;12.02;;
22786;SDS011;63134;52.020;4.714;2024-01-25T11:58:04;38.65;;;11.20;;
22786;SDS011;63134;52.020;4.714;2024-01-25T12:00:51;32.40;;;10.50;;
22786;SDS011;63134;52.020;4.714;2024-01-25T12:03:38;34.72;;;10.50;;
22786;SDS011;63134;52.020;4.714;2024-01-25T12:06:25;39.35;;;11.48;;
22786;SDS011;63134;52.020;4.714;2024-01-25T12:09:11;46.72;;;13.80;;
22786;SDS011;63134;52.020;4.714;2024-01-25T12:11:57;40.85;;;13.57;;
22786;SDS011;63134;52.020;4.714;2024-01-25T12:14:45;42.03;;;13.95;;
22786;SDS011;63134;52.020;4.714;2024-01-25T12:17:32;30.25;;;12.32;;
22786;SDS011;63134;52.020;4.714;2024-01-25T12:20:21;41.47;;;12.77;;
22786;SDS011;63134;52.020;4.714;2024-01-25T12:23:07;32.15;;;11.52;;
22786;SDS011;63134;52.020;4.714;2024-01-25T12:25:53;38.15;;;11.02;;
22786;SDS011;63134;52.020;4.714;2024-01-25T12:28:39;34.78;;;11.60;;
22786;SDS011;63134;52.020;4.714;2024-01-25T12:31:26;31.48;;;11.25;;
22786;SDS011;63134;52.020;4.714;2024-01-25T12:34:14;36.03;;;9.93;;
22786;SDS011;63134;52.020;4.714;2024-01-25T12:37:01;37.58;;;12.02;;
22786;SDS011;63134;52.020;4.714;2024-01-25T12:39:48;36.63;;;12.15;;
22786;SDS011;63134;52.020;4.714;2024-01-25T12:42:35;34.33;;;12.52;;
22786;SDS011;63134;52.020;4.714;2024-01-25T12:45:21;36.63;;;11.88;;
22786;SDS011;63134;52.020;4.714;2024-01-25T12:48:06;40.22;;;12.07;;
22786;SDS011;63134;52.020;4.714;2024-01-25T12:50:53;31.55;;;11.70;;
22786;SDS011;63134;52.020;4.714;2024-01-25T12:53:39;24.85;;;9.63;;
22786;SDS011;63134;52.020;4.714;2024-01-25T12:56:24;31.80;;;10.32;;
22786;SDS011;63134;52.020;4.714;2024-01-25T12:59:13;30.10;;;11.20;;
22786;SDS011;63134;52.020;4.714;2024-01-25T13:01:58;29.95;;;9.63;;
22786;SDS011;63134;52.020;4.714;2024-01-25T13:04:44;35.22;;;11.70;;
22786;SDS011;63134;52.020;4.714;2024-01-25T13:07:29;33.63;;;12.48;;
22786;SDS011;63134;52.020;4.714;2024-01-25T13:10:15;33.72;;;12.02;;
22786;SDS011;63134;52.020;4.714;2024-01-25T13:13:01;43.58;;;15.00;;
22786;SDS011;63134;52.020;4.714;2024-01-25T13:15:46;41.83;;;13.45;;
22786;SDS011;63134;52.020;4.714;2024-01-25T13:18:32;36.95;;;12.25;;
22786;SDS011;63134;52.020;4.714;2024-01-25T13:21:18;34.22;;;12.80;;
22786;SDS011;63134;52.020;4.714;2024-01-25T13:24:03;37.90;;;12.80;;
22786;SDS011;63134;52.020;4.714;2024-01-25T13:26:49;37.53;;;10.95;;
22786;SDS011;63134;52.020;4.714;2024-01-25T13:29:35;36.67;;;11.40;;
22786;SDS011;63134;52.020;4.714;2024-01-25T13:32:22;31.33;;;10.88;;
22786;SDS011;63134;52.020;4.714;2024-01-25T13:35:07;31.25;;;9.93;;
22786;SDS011;63134;52.020;4.714;2024-01-25T13:37:53;27.88;;;8.52;;
22786;SDS011;63134;52.020;4.714;2024-01-25T13:40:39;27.98;;;9.50;;
22786;SDS011;63134;52.020;4.714;2024-01-25T13:43:24;39.50;;;10.82;;
22786;SDS011;63134;52.020;4.714;2024-01-25T13:46:09;41.80;;;11.30;;
22786;SDS011;63134;52.020;4.714;2024-01-25T13:48:55;31.45;;;10.63;;
22786;SDS011;63134;52.020;4.714;2024-01-25T13:51:41;31.15;;;10.23;;
22786;SDS011;63134;52.020;4.714;2024-01-25T13:54:26;34.13;;;10.30;;
22786;SDS011;63134;52.020;4.714;2024-01-25T13:57:13;33.78;;;9.60;;
22786;SDS011;63134;52.020;4.714;2024-01-25T13:59:59;36.30;;;10.38;;
22786;SDS011;63134;52.020;4.714;2024-01-25T14:02:48;34.08;;;10.52;;
22786;SDS011;63134;52.020;4.714;2024-01-25T14:05:34;40.92;;;10.30;;
22786;SDS011;63134;52.020;4.714;2024-01-25T14:08:20;41.20;;;10.80;;
22786;SDS011;63134;52.020;4.714;2024-01-25T14:11:06;47.28;;;14.40;;
22786;SDS011;63134;52.020;4.714;2024-01-25T14:13:51;35.55;;;12.02;;
22786;SDS011;63134;52.020;4.714;2024-01-25T14:16:37;34.55;;;10.98;;
22786;SDS011;63134;52.020;4.714;2024-01-25T14:19:23;41.95;;;12.75;;
22786;SDS011;63134;52.020;4.714;2024-01-25T14:22:09;32.10;;;10.50;;
22786;SDS011;63134;52.020;4.714;2024-01-25T14:25:13;37.90;;;10.80;;
22786;SDS011;63134;52.020;4.714;2024-01-25T14:27:58;28.38;;;10.18;;
22786;SDS011;63134;52.020;4.714;2024-01-25T14:30:45;30.35;;;10.00;;
22786;SDS011;63134;52.020;4.714;2024-01-25T14:33:34;25.50;;;9.38;;
22786;SDS011;63134;52.020;4.714;2024-01-25T14:36:20;33.03;;;10.45;;
22786;SDS011;63134;52.020;4.714;2024-01-25T14:39:05;34.50;;;10.80;;
22786;SDS011;63134;52.020;4.714;2024-01-25T14:41:53;39.20;;;10.73;;
22786;SDS011;63134;52.020;4.714;2024-01-25T14:44:39;33.58;;;11.57;;
22786;SDS011;63134;52.020;4.714;2024-01-25T14:47:28;35.28;;;12.32;;
22786;SDS011;63134;52.020;4.714;2024-01-25T14:50:13;32.15;;;12.15;;
22786;SDS011;63134;52.020;4.714;2024-01-25T14:52:59;32.25;;;12.80;;
22786;SDS011;63134;52.020;4.714;2024-01-25T14:55:44;40.70;;;13.32;;
22786;SDS011;63134;52.020;4.714;2024-01-25T14:58:32;39.63;;;14.23;;
22786;SDS011;63134;52.020;4.714;2024-01-25T15:01:18;32.97;;;14.05;;
22786;SDS011;63134;52.020;4.714;2024-01-25T15:04:05;32.05;;;12.93;;
22786;SDS011;63134;52.020;4.714;2024-01-25T15:06:50;33.20;;;14.13;;
22786;SDS011;63134;52.020;4.714;2024-01-25T15:09:36;29.58;;;12.88;;
22786;SDS011;63134;52.020;4.714;2024-01-25T15:12:22;28.98;;;14.02;;
22786;SDS011;63134;52.020;4.714;2024-01-25T15:15:07;31.77;;;13.52;;
22786;SDS011;63134;52.020;4.714;2024-01-25T15:17:54;35.80;;;15.48;;
22786;SDS011;63134;52.020;4.714;2024-01-25T15:20:39;37.83;;;17.88;;
22786;SDS011;63134;52.020;4.714;2024-01-25T15:23:25;36.97;;;17.10;;
22786;SDS011;63134;52.020;4.714;2024-01-25T15:26:10;36.85;;;16.88;;
22786;SDS011;63134;52.020;4.714;2024-01-25T15:28:56;39.78;;;17.73;;
22786;SDS011;63134;52.020;4.714;2024-01-25T15:31:41;45.00;;;17.33;;
22786;SDS011;63134;52.020;4.714;2024-01-25T15:34:27;37.38;;;18.50;;
22786;SDS011;63134;52.020;4.714;2024-01-25T15:37:13;42.88;;;17.80;;
22786;SDS011;63134;52.020;4.714;2024-01-25T15:39:59;43.95;;;19.75;;
22786;SDS011;63134;52.020;4.714;2024-01-25T15:42:45;42.95;;;18.02;;
22786;SDS011;63134;52.020;4.714;2024-01-25T15:45:37;53.25;;;21.77;;
22786;SDS011;63134;52.020;4.714;2024-01-25T15:48:23;49.55;;;21.65;;
22786;SDS011;63134;52.020;4.714;2024-01-25T15:51:08;55.35;;;24.35;;
22786;SDS011;63134;52.020;4.714;2024-01-25T15:53:57;63.42;;;25.48;;
22786;SDS011;63134;52.020;4.714;2024-01-25T15:56:42;58.97;;;23.50;;
22786;SDS011;63134;52.020;4.714;2024-01-25T15:59:28;51.13;;;24.02;;
22786;SDS011;63134;52.020;4.714;2024-01-25T16:02:13;59.35;;;24.55;;
22786;SDS011;63134;52.020;4.714;2024-01-25T16:04:59;65.25;;;27.75;;
22786;SDS011;63134;52.020;4.714;2024-01-25T16:07:45;64.78;;;25.45;;
22786;SDS011;63134;52.020;4.714;2024-01-25T16:10:34;67.80;;;25.27;;
22786;SDS011;63134;52.020;4.714;2024-01-25T16:13:19;60.45;;;27.30;;
22786;SDS011;63134;52.020;4.714;2024-01-25T16:16:05;65.88;;;28.15;;
22786;SDS011;63134;52.020;4.714;2024-01-25T16:18:50;63.42;;;27.75;;
22786;SDS011;63134;52.020;4.714;2024-01-25T16:21:36;67.30;;;28.67;;
22786;SDS011;63134;52.020;4.714;2024-01-25T16:24:22;69.18;;;29.65;;